Time;durP1;ratioP1;P1;durP2;ratioP2;P2;SDS_P1;SDS_P2;PMS_P1;PMS_P2;Temp;Humidity;BMP_temperature;BMP_pressure;BME280_temperature;BME280_humidity;BME280_pressure;Samples;Min_cycle;Max_cycle;Signal;HPM_P1;HPM_P2
2023/06/10 04:45:34;;;;;;;20.53;17.73;;;;;;;;;;5138128;27;20274;-83
2023/06/10 04:54:21;;;;;;;21.80;19.37;;;13.40;99.90;;;;;;5141436;27;20277;-83
2023/06/10 05:02:23;;;;;;;20.80;18.60;;;13.60;99.90;;;;;;5142559;27;20651;-83
2023/06/10 05:09:41;;;;;;;21.17;17.77;;;13.60;99.90;;;;;;5137561;27;20289;-82
2023/06/10 05:17:47;;;;;;;19.10;17.03;;;13.80;99.90;;;;;;5159213;27;20288;-82
2023/06/10 05:25:15;;;;;;;19.87;17.77;;;14.00;99.90;;;;;;5136506;27;20275;-83
2023/06/10 05:31:38;;;;;;;18.60;15.67;;;;;;;;;;5137991;27;20274;-83
2023/06/10 05:37:08;;;;;;;17.50;15.70;;;14.10;99.90;;;;;;5137597;27;20756;-82
2023/06/10 05:43:09;;;;;;;18.33;14.50;;;14.20;99.90;;;;;;5138480;27;20268;-84
2023/06/10 05:48:56;;;;;;;16.77;14.27;;;;;;;;;;5099987;27;20293;-84
2023/06/10 05:54:50;;;;;;;15.50;13.50;;;14.50;99.90;;;;;;5119499;27;20376;-83
2023/06/10 06:00:37;;;;;;;17.13;12.70;;;14.60;99.90;;;;;;5144201;27;20273;-82
2023/06/10 06:05:14;;;;;;;18.07;12.60;;;14.70;99.90;;;;;;5143557;27;20276;-82
2023/06/10 06:10:10;;;;;;;18.73;12.30;;;15.00;99.90;;;;;;5140470;27;20274;-84
2023/06/10 06:14:58;;;;;;;13.23;11.90;;;15.10;99.90;;;;;;5135901;27;20273;-84
2023/06/10 06:19:52;;;;;;;13.53;10.60;;;15.30;99.90;;;;;;5115196;27;20274;-79
2023/06/10 06:24:45;;;;;;;11.67;10.57;;;15.50;99.90;;;;;;5134536;27;20619;-80
2023/06/10 06:28:32;;;;;;;13.20;11.30;;;15.60;99.90;;;;;;5115058;27;20288;-80
2023/06/10 06:32:27;;;;;;;12.43;11.13;;;15.70;99.90;;;;;;5136532;27;20276;-80
2023/06/10 06:36:25;;;;;;;13.20;10.50;;;15.70;99.90;;;;;;5137614;27;20274;-80
2023/06/10 06:40:22;;;;;;;11.97;10.77;;;15.90;99.90;;;;;;5136492;27;20266;-80
2023/06/10 06:44:18;;;;;;;11.93;10.60;;;16.10;99.90;;;;;;5136050;27;20740;-81
2023/06/10 06:48:14;;;;;;;15.37;10.73;;;16.20;99.90;;;;;;5135626;27;20287;-81
2023/06/10 06:52:12;;;;;;;11.93;10.63;;;16.30;99.90;;;;;;5135569;27;20275;-82
2023/06/10 06:56:11;;;;;;;12.33;10.40;;;16.50;99.90;;;;;;5093837;28;20275;-79
2023/06/10 07:00:09;;;;;;;11.20;10.07;;;16.60;99.90;;;;;;5134929;27;20270;-80
2023/06/10 07:04:08;;;;;;;14.03;10.60;;;16.80;99.90;;;;;;5134732;27;20273;-80
2023/06/10 07:08:07;;;;;;;10.50;9.50;;;;;;;;;;5134883;27;20288;-80
2023/06/10 07:12:08;;;;;;;11.07;9.97;;;17.20;99.90;;;;;;5135741;27;20282;-79
2023/06/10 07:16:06;;;;;;;10.10;9.10;;;17.30;99.90;;;;;;5136808;27;20265;-81
2023/06/10 07:20:05;;;;;;;10.17;9.17;;;17.60;99.90;;;;;;5143272;27;20277;-80
2023/06/10 07:24:06;;;;;;;9.77;8.73;;;17.80;99.90;;;;;;5087053;28;20600;-81
2023/06/10 07:29:05;;;;;;;10.50;8.07;;;18.00;99.90;;;;;;5124447;27;20280;-81
2023/06/10 07:31:31;;;;;;;10.20;8.43;;;18.20;99.90;;;;;;5114114;28;20221;-81
2023/06/10 07:33:56;;;;;;;8.60;7.70;;;18.40;99.90;;;;;;5113388;28;20537;-81
2023/06/10 07:36:22;;;;;;;12.80;7.77;;;18.40;99.90;;;;;;5113802;28;20172;-80
2023/06/10 07:39:05;;;;;;;9.43;7.50;;;18.70;99.90;;;;;;5133871;27;20287;-81
2023/06/10 07:41:30;;;;;;;9.27;7.30;;;18.80;99.90;;;;;;5132746;28;20175;-81
2023/06/10 07:43:56;;;;;;;9.40;7.90;;;18.90;99.90;;;;;;5132259;28;20236;-79
2023/06/10 07:46:23;;;;;;;9.77;7.97;;;19.10;99.90;;;;;;5134152;27;20253;-79
2023/06/10 07:48:49;;;;;;;8.67;7.77;;;19.20;99.90;;;;;;5134082;27;20664;-80
2023/06/10 07:51:17;;;;;;;8.73;7.83;;;19.30;99.90;;;;;;5133733;27;20177;-81
2023/06/10 07:53:43;;;;;;;7.03;6.40;;;19.40;99.90;;;;;;5132722;27;20175;-82
2023/06/10 07:56:09;;;;;;;10.37;6.80;;;19.60;99.90;;;;;;5132644;27;20194;-80
2023/06/10 07:58:37;;;;;;;6.70;6.00;;;19.60;99.90;;;;;;5133854;27;20207;-80
2023/06/10 08:01:03;;;;;;;6.67;5.97;;;19.80;99.90;;;;;;5133028;28;20177;-82
2023/06/10 08:03:28;;;;;;;6.97;5.67;;;20.10;99.90;;;;;;5131729;28;20342;-81
2023/06/10 08:05:54;;;;;;;6.57;5.90;;;20.20;99.90;;;;;;5134283;27;20174;-80
2023/06/10 08:08:20;;;;;;;5.87;5.27;;;20.40;99.90;;;;;;5132883;28;20195;-81
2023/06/10 08:10:45;;;;;;;6.83;5.50;;;20.50;99.90;;;;;;5134544;27;20258;-81
2023/06/10 08:13:11;;;;;;;7.20;4.57;;;20.70;99.90;;;;;;5132788;28;20266;-81
2023/06/10 08:15:37;;;;;;;8.23;5.83;;;20.80;99.90;;;;;;5134021;27;20168;-80
2023/06/10 08:18:03;;;;;;;5.93;5.43;;;20.90;99.90;;;;;;5133659;28;20229;-87
2023/06/10 08:20:28;;;;;;;5.27;4.83;;;21.10;99.90;;;;;;5134947;28;20641;-83
2023/06/10 08:22:54;;;;;;;6.00;5.43;;;21.20;99.90;;;;;;5136535;27;20171;-83
2023/06/10 08:25:21;;;;;;;5.90;5.30;;;21.30;99.90;;;;;;5136033;28;20181;-83
2023/06/10 08:27:47;;;;;;;5.03;4.63;;;21.50;99.90;;;;;;5137654;27;20187;-84
2023/06/10 08:30:14;;;;;;;4.83;4.43;;;21.60;99.90;;;;;;5139247;28;20176;-84
2023/06/10 08:32:40;;;;;;;5.23;4.73;;;21.70;99.90;;;;;;5140037;28;20222;-84
2023/06/10 08:35:05;;;;;;;5.93;4.87;;;21.80;99.90;;;;;;5141018;28;20182;-84
2023/06/10 08:37:31;;;;;;;4.97;4.57;;;21.90;99.90;;;;;;5139048;28;20202;-83
2023/06/10 08:39:57;;;;;;;4.70;4.30;;;22.00;99.90;;;;;;5141838;28;20271;-84
2023/06/10 08:42:26;;;;;;;6.37;4.30;;;22.00;99.90;;;;;;5142861;27;20175;-83
2023/06/10 08:44:56;;;;;;;5.60;4.43;;;22.00;99.90;;;;;;5136424;28;20180;-85
2023/06/10 08:47:24;;;;;;;4.53;4.13;;;22.30;99.90;;;;;;5137290;28;20195;-85
2023/06/10 08:49:51;;;;;;;4.37;3.97;;;22.50;99.90;;;;;;5124255;28;20185;-83
2023/06/10 08:52:18;;;;;;;4.87;3.97;;;22.60;99.90;;;;;;5121622;28;20179;-86
2023/06/10 08:54:58;;;;;;;4.43;3.93;;;22.80;99.90;;;;;;5121824;28;20190;-84
2023/06/10 08:57:26;;;;;;;4.90;3.83;;;23.00;99.90;;;;;;5121083;28;20219;-84
2023/06/10 08:59:54;;;;;;;4.43;4.03;;;23.20;99.90;;;;;;5124374;28;20164;-84
2023/06/10 09:02:20;;;;;;;4.53;4.10;;;23.20;99.90;;;;;;5121937;28;20198;-86
2023/06/10 09:04:48;;;;;;;5.17;4.50;;;23.30;99.90;;;;;;5121231;28;20263;-85
2023/06/10 09:07:15;;;;;;;6.50;4.10;;;23.40;99.90;;;;;;5120772;28;20186;-84
2023/06/10 09:09:43;;;;;;;4.80;3.83;;;23.40;99.90;;;;;;5121571;28;20555;-83
2023/06/10 09:12:09;;;;;;;4.00;3.70;;;23.50;99.90;;;;;;5121291;28;20189;-84
2023/06/10 09:14:35;;;;;;;4.20;3.80;;;23.70;99.90;;;;;;5120949;28;20259;-83
2023/06/10 09:17:01;;;;;;;4.97;3.57;;;23.80;99.90;;;;;;5121224;28;20689;-84
2023/06/10 09:19:29;;;;;;;3.90;3.60;;;24.10;99.90;;;;;;5124722;28;20206;-85
2023/06/10 09:21:54;;;;;;;4.63;3.67;;;24.30;99.90;;;;;;5123323;28;20182;-85
2023/06/10 09:24:24;;;;;;;3.90;3.60;;;24.40;99.90;;;;;;5122857;28;20208;-84
2023/06/10 09:26:50;;;;;;;3.70;3.40;;;24.50;99.90;;;;;;5122215;28;20185;-85
2023/06/10 09:29:17;;;;;;;3.47;3.10;;;24.60;99.90;;;;;;5122204;28;20634;-85
2023/06/10 09:31:43;;;;;;;3.80;3.50;;;24.60;99.90;;;;;;5123260;28;20171;-83
2023/06/10 09:34:11;;;;;;;3.93;3.60;;;24.70;99.90;;;;;;5123603;28;20175;-86
2023/06/10 09:36:38;;;;;;;3.33;3.03;;;24.90;99.90;;;;;;5122973;28;20263;-85
2023/06/10 09:39:04;;;;;;;4.10;3.33;;;25.00;99.90;;;;;;5123545;28;20639;-84
2023/06/10 09:41:34;;;;;;;4.07;3.67;;;25.00;99.90;;;;;;5124548;28;20546;-84
2023/06/10 09:44:01;;;;;;;3.50;3.17;;;25.10;99.90;;;;;;5123392;28;20263;-84
2023/06/10 09:46:31;;;;;;;3.97;3.67;;;25.10;99.90;;;;;;5121595;28;20646;-83
2023/06/10 09:48:57;;;;;;;3.50;3.20;;;25.10;99.90;;;;;;5125286;28;20194;-84
2023/06/10 09:51:23;;;;;;;4.00;3.00;;;25.30;99.90;;;;;;5133901;28;20176;-84
2023/06/10 09:53:51;;;;;;;3.50;3.03;;;25.50;99.90;;;;;;5131656;28;20190;-83
2023/06/10 09:56:17;;;;;;;3.60;3.30;;;25.80;99.90;;;;;;5132272;28;20184;-83
2023/06/10 09:58:45;;;;;;;3.60;3.30;;;25.30;99.90;;;;;;5127872;28;20204;-84
2023/06/10 10:01:13;;;;;;;5.23;3.10;;;25.30;99.90;;;;;;5119118;28;20258;-84
2023/06/10 10:03:50;;;;;;;4.27;3.10;;;25.40;99.90;;;;;;5122835;28;20173;-84
2023/06/10 10:06:17;;;;;;;4.97;3.80;;;25.60;99.90;;;;;;5122651;28;20179;-84
2023/06/10 10:08:44;;;;;;;4.37;3.90;;;25.90;99.90;;;;;;5122254;28;20273;-84
2023/06/10 10:11:10;;;;;;;4.67;3.97;;;26.20;99.90;;;;;;5121261;28;20261;-84
2023/06/10 10:13:38;;;;;;;5.43;3.47;;;26.40;99.90;;;;;;5122108;28;20200;-85
2023/06/10 10:16:10;;;;;;;4.10;3.50;;;26.50;99.90;;;;;;5120387;28;20514;-83
2023/06/10 10:18:41;;;;;;;4.77;3.57;;;26.60;99.90;;;;;;5120417;28;20207;-83
2023/06/10 10:21:12;;;;;;;3.87;3.57;;;26.40;99.90;;;;;;5121510;28;20252;-84
2023/06/10 10:24:19;;;;;;;4.17;3.80;;;26.00;99.90;;;;;;5120438;28;20203;-83
2023/06/10 10:26:47;;;;;;;4.10;3.70;;;26.10;99.90;;;;;;5086282;28;20205;-83
2023/06/10 10:29:38;;;;;;;3.97;3.60;;;26.50;99.90;;;;;;5120645;28;20663;-84
2023/06/10 10:32:05;;;;;;;4.43;4.00;;;27.00;99.90;;;;;;5121955;28;20175;-85
2023/06/10 10:34:48;;;;;;;3.67;3.37;;;27.40;99.90;;;;;;5121896;28;20165;-84
2023/06/10 10:37:14;;;;;;;4.20;3.80;;;27.80;99.90;;;;;;5122321;28;20692;-83
2023/06/10 10:39:40;;;;;;;3.93;3.63;;;27.60;99.90;;;;;;5122273;28;20184;-83
2023/06/10 10:42:09;;;;;;;4.17;3.87;;;27.80;99.90;;;;;;5122393;28;20524;-83
2023/06/10 10:44:36;;;;;;;4.77;4.03;;;27.00;99.50;;;;;;5120587;28;20184;-84
2023/06/10 10:47:04;;;;;;;5.90;3.77;;;26.40;99.90;;;;;;5120982;28;20521;-85
2023/06/10 10:49:30;;;;;;;4.63;3.67;;;25.60;99.90;;;;;;5121443;28;20197;-85
2023/06/10 10:51:57;;;;;;;4.93;3.37;;;25.50;99.90;;;;;;5122035;28;20169;-84
2023/06/10 10:54:34;;;;;;;3.90;3.50;;;26.00;99.90;;;;;;5122158;28;20182;-83
2023/06/10 10:57:09;;;;;;;3.77;3.37;;;26.50;99.90;;;;;;5122017;28;20656;-85
2023/06/10 10:59:56;;;;;;;4.03;3.63;;;26.80;99.40;;;;;;5124554;28;20214;-83
2023/06/10 11:02:44;;;;;;;3.87;3.57;;;27.40;99.60;;;;;;5125437;28;20576;-85
2023/06/10 11:05:15;;;;;;;3.63;3.33;;;27.90;99.90;;;;;;5124245;28;20638;-83
2023/06/10 11:07:51;;;;;;;4.07;3.23;;;28.60;98.10;;;;;;5122609;28;20667;-82
2023/06/10 11:10:16;;;;;;;3.70;3.10;;;28.80;97.30;;;;;;5124578;28;20688;-83
2023/06/10 11:12:45;;;;;;;3.63;3.03;;;29.10;96.50;;;;;;5123367;28;20237;-83
2023/06/10 11:15:25;;;;;;;3.50;2.97;;;29.20;95.10;;;;;;5119678;28;20183;-83
2023/06/10 11:18:10;;;;;;;4.60;3.17;;;29.40;97.50;;;;;;5119890;28;20204;-83
2023/06/10 11:20:52;;;;;;;3.27;2.97;;;29.90;96.70;;;;;;5122373;28;20177;-84
2023/06/10 11:23:34;;;;;;;3.13;2.93;;;30.10;94.20;;;;;;5120859;28;20176;-84
2023/06/10 11:26:20;;;;;;;5.50;3.20;;;29.70;94.90;;;;;;5120615;28;20190;-82
2023/06/10 11:28:46;;;;;;;2.80;2.60;;;29.50;95.50;;;;;;5119902;28;20210;-84
2023/06/10 11:31:22;;;;;;;2.90;2.67;;;29.90;95.70;;;;;;5119311;28;20240;-85
2023/06/10 11:33:55;;;;;;;3.17;2.87;;;29.70;91.90;;;;;;5121864;28;20168;-84
2023/06/10 11:36:25;;;;;;;3.67;3.10;;;28.40;91.30;;;;;;5122296;28;20176;-83
2023/06/10 11:38:59;;;;;;;2.63;2.43;;;27.40;92.70;;;;;;5121986;28;20679;-84
2023/06/10 11:41:26;;;;;;;3.00;2.70;;;26.50;94.70;;;;;;5122045;28;20169;-82
2023/06/10 11:43:52;;;;;;;3.23;2.87;;;25.90;94.60;;;;;;5122402;28;20172;-82
2023/06/10 11:46:18;;;;;;;2.80;2.60;;;26.00;94.60;;;;;;5122496;28;20164;-82
2023/06/10 11:48:54;;;;;;;3.20;2.90;;;25.80;96.60;;;;;;5124086;28;20201;-82
2023/06/10 11:51:21;;;;;;;5.87;3.37;;;25.50;95.30;;;;;;5122990;28;20175;-82
2023/06/10 11:53:48;;;;;;;5.33;3.07;;;25.30;96.60;;;;;;5123343;28;20210;-83
2023/06/10 11:56:23;;;;;;;9.23;3.00;;;25.80;97.80;;;;;;5122253;28;20179;-83
2023/06/10 11:59:07;;;;;;;3.10;2.80;;;27.00;98.30;;;;;;5122029;28;20538;-83
2023/06/10 12:01:39;;;;;;;2.83;2.63;;;28.30;94.50;;;;;;5122450;28;20172;-83
2023/06/10 12:04:06;;;;;;;2.87;2.57;;;29.50;95.30;;;;;;5123434;28;20183;-85
2023/06/10 12:06:48;;;;;;;2.80;2.60;;;30.10;96.70;;;;;;5124394;28;20173;-83
2023/06/10 12:09:22;;;;;;;2.53;2.33;;;30.20;95.60;;;;;;5122718;28;20253;-83
2023/06/10 12:11:55;;;;;;;4.17;2.77;;;29.70;91.90;;;;;;5124006;28;20630;-84
2023/06/10 12:14:56;;;;;;;3.20;2.90;;;28.70;89.60;;;;;;5122202;28;20637;-83
2023/06/10 12:17:42;;;;;;;2.83;2.63;;;27.70;91.30;;;;;;5124871;28;20208;-83
2023/06/10 12:20:23;;;;;;;2.60;2.40;;;27.10;93.30;;;;;;5133563;28;20148;-83
2023/06/10 12:22:49;;;;;;;2.77;2.57;;;26.60;92.40;;;;;;5123628;28;20176;-84
2023/06/10 12:25:15;;;;;;;8.90;2.50;;;26.60;95.00;;;;;;5129879;28;20190;-83
2023/06/10 12:27:51;;;;;;;6.27;2.80;;;27.50;97.10;;;;;;5125228;28;20176;-82
2023/06/10 12:30:22;;;;;;;2.87;2.60;;;28.20;93.50;;;;;;5125427;28;20604;-84
2023/06/10 12:32:48;;;;;;;3.43;2.83;;;27.80;91.30;;;;;;5125631;28;20199;-83
2023/06/10 12:35:20;;;;;;;2.73;2.30;;;26.90;90.50;;;;;;5124076;28;20194;-85
2023/06/10 12:38:06;;;;;;;2.97;2.67;;;27.00;92.90;;;;;;5125085;28;20275;-82
2023/06/10 12:40:34;;;;;;;3.87;2.47;;;27.20;94.80;;;;;;5124560;28;20183;-82
2023/06/10 12:43:01;;;;;;;7.80;2.83;;;26.80;91.50;;;;;;5123983;28;20183;-82
2023/06/10 12:45:31;;;;;;;4.77;3.10;;;26.40;93.10;;;;;;5123070;28;20171;-81
2023/06/10 12:48:19;;;;;;;2.67;2.47;;;25.80;92.80;;;;;;5125776;28;20191;-83
2023/06/10 12:50:50;;;;;;;5.83;2.40;;;26.30;98.40;;;;;;5124227;28;20541;-84
2023/06/10 12:53:18;;;;;;;4.63;2.70;;;27.50;95.20;;;;;;5123034;28;20174;-85
2023/06/10 12:55:45;;;;;;;4.43;2.40;;;28.70;95.50;;;;;;5123971;28;20629;-85
2023/06/10 12:58:11;;;;;;;2.93;2.40;;;29.40;94.20;;;;;;5121186;28;20251;-84
2023/06/10 13:00:37;;;;;;;2.60;2.40;;;28.90;91.90;;;;;;5123402;28;20720;-84
2023/06/10 13:03:05;;;;;;;2.47;2.20;;;28.40;90.80;;;;;;5123519;28;20178;-83
2023/06/10 13:05:31;;;;;;;3.07;2.60;;;28.90;94.50;;;;;;5123890;28;20163;-85
2023/06/10 13:07:57;;;;;;;5.13;2.20;;;29.70;94.20;;;;;;5124844;28;20194;-88
2023/06/10 13:10:25;;;;;;;2.60;2.30;;;30.20;91.40;;;;;;5121277;28;20179;-85
2023/06/10 13:12:51;;;;;;;5.40;2.47;;;30.50;87.20;;;;;;5121240;28;20180;-85
2023/06/10 13:15:17;;;;;;;2.87;2.40;;;30.70;90.40;;;;;;5121574;28;20179;-85
2023/06/10 13:17:50;;;;;;;11.53;3.10;;;30.10;88.80;;;;;;5121240;28;20294;-89
2023/06/10 13:20:16;;;;;;;5.40;2.50;;;29.70;87.10;;;;;;5124837;28;20189;-87
2023/06/10 13:22:42;;;;;;;2.83;2.27;;;29.50;87.00;;;;;;5122628;28;20239;-87
2023/06/10 13:25:08;;;;;;;2.33;2.07;;;28.90;86.50;;;;;;5123692;28;20179;-85
2023/06/10 13:27:37;;;;;;;4.10;2.10;;;28.20;90.10;;;;;;5123524;28;20172;-80
2023/06/10 13:30:04;;;;;;;4.70;2.73;;;28.20;90.40;;;;;;5124105;28;20164;-87
2023/06/10 13:32:29;;;;;;;2.37;1.90;;;28.60;89.90;;;;;;5127409;28;20176;-86
2023/06/10 13:34:56;;;;;;;2.87;2.37;;;28.60;85.40;;;;;;5118727;28;20272;-84
2023/06/10 13:37:22;;;;;;;2.70;2.10;;;29.10;91.90;;;;;;5118047;28;20208;-87
2023/06/10 13:39:50;;;;;;;2.60;2.00;;;29.50;85.30;;;;;;5119298;28;20229;-84
2023/06/10 13:42:17;;;;;;;2.00;1.90;;;29.90;84.80;;;;;;5121922;28;20229;-82
2023/06/10 13:44:42;;;;;;;2.70;2.50;;;30.30;91.70;;;;;;5122813;28;20164;-88
2023/06/10 13:47:08;;;;;;;2.60;2.40;;;30.20;91.70;;;;;;5120739;28;20178;-88
2023/06/10 13:49:33;;;;;;;2.93;2.70;;;29.70;85.70;;;;;;5118285;28;20195;-84
2023/06/10 13:51:59;;;;;;;3.03;2.57;;;28.70;82.50;;;;;;5116972;28;20174;-87
2023/06/10 13:54:25;;;;;;;4.80;2.60;;;27.90;90.30;;;;;;5117967;28;20265;-88
2023/06/10 13:56:50;;;;;;;2.27;2.07;;;27.40;85.10;;;;;;5116816;28;20272;-87
2023/06/10 13:59:18;;;;;;;2.80;2.30;;;26.80;87.50;;;;;;5118051;28;20181;-87
2023/06/10 14:01:44;;;;;;;2.93;2.73;;;26.50;91.60;;;;;;5116616;28;20181;-88
2023/06/10 14:04:10;;;;;;;2.63;2.30;;;27.10;91.60;;;;;;5116617;28;20174;-85
2023/06/10 14:06:36;;;;;;;3.60;3.00;;;27.90;93.60;;;;;;5118888;28;20182;-86
2023/06/10 14:09:02;;;;;;;4.53;2.50;;;28.30;86.40;;;;;;5121263;28;20557;-86
2023/06/10 14:11:27;;;;;;;3.57;2.53;;;27.80;88.60;;;;;;5120188;28;20172;-86
2023/06/10 14:13:56;;;;;;;2.63;2.43;;;27.20;91.60;;;;;;5123916;28;20168;-85
2023/06/10 14:16:21;;;;;;;2.50;2.30;;;26.70;90.50;;;;;;5124017;28;20215;-85
2023/06/10 14:18:47;;;;;;;2.50;2.30;;;27.00;91.30;;;;;;5121988;28;20203;-85
2023/06/10 14:21:13;;;;;;;2.70;2.50;;;27.20;90.20;;;;;;5121769;28;20247;-84
2023/06/10 14:23:39;;;;;;;2.60;2.40;;;27.50;92.00;;;;;;5120749;28;20193;-84
2023/06/10 14:26:06;;;;;;;2.97;2.30;;;28.10;91.10;;;;;;5121851;28;20172;-84
2023/06/10 14:28:32;;;;;;;3.67;2.67;;;28.40;87.50;;;;;;5120654;28;20573;-86
2023/06/10 14:30:58;;;;;;;2.60;2.40;;;28.10;90.10;;;;;;5122472;28;20171;-85
2023/06/10 14:33:25;;;;;;;2.60;2.40;;;27.60;87.90;;;;;;5122107;28;20177;-86
2023/06/10 14:35:50;;;;;;;2.90;2.60;;;26.90;88.50;;;;;;5122158;28;20177;-85
2023/06/10 14:38:16;;;;;;;4.20;2.37;;;26.30;90.90;;;;;;5121998;28;20214;-86
2023/06/10 14:40:42;;;;;;;4.27;3.30;;;25.80;90.70;;;;;;5121929;28;20244;-85
2023/06/10 14:43:09;;;;;;;5.47;3.83;;;25.30;90.60;;;;;;5123165;28;20225;-85
2023/06/10 14:45:39;;;;;;;2.97;2.67;;;24.90;92.00;;;;;;5125595;28;20658;-85
2023/06/10 14:48:06;;;;;;;3.33;3.03;;;24.80;92.20;;;;;;5121825;28;20205;-85
2023/06/10 14:50:32;;;;;;;3.17;2.60;;;24.60;92.80;;;;;;5125267;28;20175;-85
2023/06/10 14:52:59;;;;;;;3.30;3.00;;;24.50;92.30;;;;;;5126592;28;20267;-85
2023/06/10 14:55:24;;;;;;;2.97;2.70;;;24.40;92.80;;;;;;5129190;28;20183;-86
2023/06/10 14:57:50;;;;;;;4.10;2.90;;;24.50;93.90;;;;;;5129039;28;20231;-85
2023/06/10 15:00:19;;;;;;;3.53;3.23;;;24.50;92.70;;;;;;5123050;28;20209;-86
2023/06/10 15:02:46;;;;;;;3.10;2.90;;;25.10;93.00;;;;;;5123087;28;20168;-86
2023/06/10 15:05:12;;;;;;;3.03;2.83;;;25.20;93.00;;;;;;5121430;28;20175;-86
2023/06/10 15:07:37;;;;;;;3.93;3.00;;;25.00;92.50;;;;;;5120853;28;20191;-86
2023/06/10 15:10:03;;;;;;;4.03;3.23;;;24.80;93.50;;;;;;5122134;28;20260;-86
2023/06/10 15:12:30;;;;;;;3.23;2.93;;;24.60;94.30;;;;;;5122667;28;20197;-86
2023/06/10 15:14:55;;;;;;;6.20;3.13;;;24.40;94.10;;;;;;5120529;28;20199;-86
2023/06/10 15:17:21;;;;;;;3.10;2.80;;;24.20;93.10;;;;;;5121460;28;20256;-86
2023/06/10 15:19:46;;;;;;;3.40;3.10;;;24.00;93.00;;;;;;5120174;28;20230;-84
2023/06/10 15:22:13;;;;;;;3.17;2.87;;;23.80;92.90;;;;;;5121640;28;20172;-84
2023/06/10 15:24:38;;;;;;;3.43;3.13;;;23.60;94.20;;;;;;5120109;28;20170;-84
2023/06/10 15:27:05;;;;;;;6.33;3.53;;;23.50;94.20;;;;;;5120896;28;20187;-86
2023/06/10 15:29:31;;;;;;;4.63;3.33;;;23.50;94.80;;;;;;5120727;28;20180;-85
2023/06/10 15:31:56;;;;;;;3.90;3.50;;;23.30;94.40;;;;;;5118998;28;20519;-86
2023/06/10 15:34:22;;;;;;;3.83;3.53;;;23.50;97.10;;;;;;5118423;28;20236;-84
2023/06/10 15:36:48;;;;;;;5.10;3.07;;;24.30;94.80;;;;;;5120534;28;20184;-85
2023/06/10 15:39:13;;;;;;;3.83;3.53;;;24.50;93.90;;;;;;5119283;28;20211;-85
2023/06/10 15:41:39;;;;;;;3.70;3.40;;;24.30;93.90;;;;;;5120998;28;20170;-86
2023/06/10 15:44:05;;;;;;;3.50;3.20;;;24.10;94.90;;;;;;5119444;28;20270;-86
2023/06/10 15:46:31;;;;;;;3.80;3.50;;;23.80;94.50;;;;;;5119564;28;20179;-85
2023/06/10 15:48:57;;;;;;;3.60;3.30;;;23.90;95.00;;;;;;5121643;28;20187;-85
2023/06/10 15:51:23;;;;;;;6.50;3.23;;;24.60;96.70;;;;;;5122151;28;20254;-85
2023/06/10 15:53:50;;;;;;;3.63;3.33;;;24.70;94.20;;;;;;5121594;28;20179;-85
2023/06/10 15:56:15;;;;;;;3.80;3.50;;;24.40;94.60;;;;;;5122125;28;20175;-85
2023/06/10 15:58:41;;;;;;;4.70;3.27;;;24.20;94.40;;;;;;5125263;28;20216;-86
2023/06/10 16:01:08;;;;;;;5.07;3.73;;;24.20;94.30;;;;;;5124104;28;20172;-85
2023/06/10 16:03:35;;;;;;;3.40;3.10;;;24.00;94.70;;;;;;5124306;28;20172;-85
2023/06/10 16:06:01;;;;;;;4.10;3.70;;;23.80;94.90;;;;;;5121462;28;20181;-85
2023/06/10 16:08:27;;;;;;;6.97;4.80;;;23.90;97.10;;;;;;5124934;28;20264;-85
2023/06/10 16:10:52;;;;;;;4.87;4.47;;;24.20;94.70;;;;;;5125296;28;20179;-86
2023/06/10 16:13:18;;;;;;;3.83;3.50;;;24.50;94.40;;;;;;5125587;28;20698;-84
2023/06/10 16:15:44;;;;;;;3.50;3.20;;;24.80;95.70;;;;;;5126856;28;20522;-84
2023/06/10 16:18:09;;;;;;;4.10;3.00;;;25.10;94.50;;;;;;5125971;28;20212;-86
2023/06/10 16:20:35;;;;;;;3.37;3.07;;;25.30;93.40;;;;;;5126374;28;20408;-84
2023/06/10 16:23:02;;;;;;;3.57;3.23;;;25.40;94.10;;;;;;5124337;28;20170;-85
2023/06/10 16:25:29;;;;;;;5.77;3.63;;;25.50;94.70;;;;;;5120987;28;20540;-82
2023/06/10 16:27:54;;;;;;;4.30;3.20;;;25.30;94.00;;;;;;5119238;28;20221;-84
2023/06/10 16:30:20;;;;;;;14.33;12.70;;;24.90;94.50;;;;;;5120307;28;20175;-86
2023/06/10 16:32:46;;;;;;;211.93;189.67;;;24.40;94.60;;;;;;5121650;28;20178;-86
2023/06/10 16:35:11;;;;;;;11.27;9.37;;;23.80;95.10;;;;;;5122211;28;20214;-84
2023/06/10 16:37:37;;;;;;;1125.07;810.13;;;23.50;95.90;;;;;;5122277;28;20205;-85
2023/06/10 16:40:03;;;;;;;276.17;214.47;;;23.20;96.70;;;;;;5120647;28;20260;-85
2023/06/10 16:42:29;;;;;;;809.13;643.53;;;23.00;96.30;;;;;;5120909;28;20196;-87
2023/06/10 16:44:55;;;;;;;102.07;78.43;;;22.90;96.50;;;;;;5121294;28;20266;-85
2023/06/10 16:47:20;;;;;;;1319.77;933.43;;;22.70;96.60;;;;;;5120945;28;20245;-83
2023/06/10 16:49:46;;;;;;;28.47;22.97;;;22.50;97.20;;;;;;5121488;28;20295;-85
2023/06/10 16:52:11;;;;;;;38.40;31.60;;;22.30;97.00;;;;;;5123443;28;20699;-86
2023/06/10 16:54:37;;;;;;;64.07;47.03;;;22.20;97.40;;;;;;5123962;28;20683;-86
2023/06/10 16:57:03;;;;;;;5.67;5.17;;;22.00;97.10;;;;;;5123771;28;20543;-85
2023/06/10 16:59:29;;;;;;;15.00;10.70;;;21.90;97.40;;;;;;5123758;28;20188;-84
2023/06/10 17:01:54;;;;;;;7.33;6.63;;;21.90;97.70;;;;;;5123806;28;20520;-86
2023/06/10 17:04:20;;;;;;;8.67;7.80;;;21.80;97.90;;;;;;5123966;28;20256;-86
2023/06/10 17:06:47;;;;;;;6.87;5.20;;;21.80;97.80;;;;;;5124073;28;20210;-85
2023/06/10 17:09:12;;;;;;;6.07;5.23;;;21.80;98.00;;;;;;5125263;28;20220;-84
2023/06/10 17:11:38;;;;;;;5.77;4.60;;;21.80;98.30;;;;;;5127681;28;20618;-85
2023/06/10 17:53:53;;;;;;;8.00;5.67;;;21.40;98.20;;;;;;5140139;27;20274;-85
2023/06/10 18:06:17;;;;;;;4.20;3.13;;;21.40;97.90;;;;;;5139004;27;20279;-83
2023/06/10 18:25:22;;;;;;;9.57;7.63;;;21.00;99.10;;;;;;5134469;27;20284;-84
